Дата Пункты Температура Давл., мм. Влажн., % Ветер Погодные явления
Воздуха Воды Направл. Скорость
04.01.19 02:00 Одесса -2.0 4.0 759 81 Пн 3 02 ГОДИНИ
03.01.19 11:00 Одесса -1.0 4.0 759 82 Пн 3 23 ГОДИНИ
03.01.19 08:00 Одесса -1.0 4.0 760 84 Пн-З 2 20 ГОДИН
03.01.19 05:00 Одесса 1.0 4.0 759 73 Пн-З 2 17 ГОДИН
03.01.19 02:00 Одесса 4.0 4.0 757 67 Пн-З 1 14 ГОДИН
03.01.19 11:00 Одесса 2.0 4.0 757 77 Пн-З 1 11 ГОДИН
03.01.19 08:00 Одесса -1.0 4.0 755 92 З 2 08 ГОДИН
03.01.19 05:00 Одесса -1.0 4.0 754 95 З 2 05 ГОДИН
03.01.19 02:00 Одесса -1.0 4.0 754 93 З 2 02 ГОДИНИ
02.01.19 11:00 Одесса -1.0 4.0 754 90 З 2 23 ГОДИНИ
02.01.19 08:00 Одесса 1.0 4.0 754 82 Пд-З 2 20 ГОДИН
02.01.19 05:00 Одесса 1.0 4.0 753 79 Пд-З 2 17 ГОДИН
02.01.19 02:00 Одесса 2.0 4.0 753 75 Пд-З 3 14 ГОДИН
02.01.19 11:00 Одесса 1.0 4.0 754 75 Пд-З 3 11 ГОДИН
02.01.19 08:00 Одесса -1.0 4.0 755 89 Пд-З 3 08 ГОДИН
02.01.19 05:00 Одесса -1.0 4.0 756 91 З 3 05 ГОДИН
02.01.19 02:00 Одесса 3.0 4.0 757 84 Пд-З 3 02 ГОДИНИ
01.01.19 11:00 Одесса 3.0 4.0 760 78 Пд-З 2 23 ГОДИНИ
01.01.19 08:00 Одесса 2.0 4.0 761 80 Пд-З 2 20 ГОДИН
01.01.19 05:00 Одесса 2.0 4.0 763 84 Пд-З 1 17 ГОДИН
Количество строк
1 2 3 4 5 6 7 8 9 10
Page 6 of 448